sensor_id;sensor_type;location;lat;lon;timestamp;pressure;altitude;pressure_sealevel;temperature;humidity
73338;BME280;61575;49.908;35.556;2023-06-22T00:01:44;99608.66;;;14.97;69.83
73338;BME280;61575;49.908;35.556;2023-06-22T00:04:46;99612.78;;;14.93;69.81
73338;BME280;61575;49.908;35.556;2023-06-22T00:07:48;99607.97;;;14.89;69.55
73338;BME280;61575;49.908;35.556;2023-06-22T00:10:50;99613.31;;;14.82;70.13
73338;BME280;61575;49.908;35.556;2023-06-22T00:13:52;99621.81;;;14.79;69.96
73338;BME280;61575;49.908;35.556;2023-06-22T00:16:54;99623.44;;;14.73;69.26
73338;BME280;61575;49.908;35.556;2023-06-22T00:19:58;99621.31;;;14.69;69.51
73338;BME280;61575;49.908;35.556;2023-06-22T00:23:03;99621.88;;;14.64;69.89
73338;BME280;61575;49.908;35.556;2023-06-22T00:26:15;99620.59;;;14.60;70.26
73338;BME280;61575;49.908;35.556;2023-06-22T00:29:17;99628.25;;;14.57;70.61
73338;BME280;61575;49.908;35.556;2023-06-22T00:32:20;99626.13;;;14.52;70.81
73338;BME280;61575;49.908;35.556;2023-06-22T00:35:22;99628.41;;;14.49;71.37
73338;BME280;61575;49.908;35.556;2023-06-22T00:38:24;99626.91;;;14.46;71.53
73338;BME280;61575;49.908;35.556;2023-06-22T00:41:26;99626.91;;;14.46;71.91
73338;BME280;61575;49.908;35.556;2023-06-22T00:44:30;99631.66;;;14.44;72.30
73338;BME280;61575;49.908;35.556;2023-06-22T00:47:33;99627.94;;;14.45;72.33
73338;BME280;61575;49.908;35.556;2023-06-22T00:50:35;99622.91;;;14.42;72.84
73338;BME280;61575;49.908;35.556;2023-06-22T00:53:37;99624.53;;;14.36;71.19
73338;BME280;61575;49.908;35.556;2023-06-22T00:56:41;99628.44;;;14.34;70.78
73338;BME280;61575;49.908;35.556;2023-06-22T00:59:45;99625.94;;;14.32;71.11
73338;BME280;61575;49.908;35.556;2023-06-22T01:02:47;99632.56;;;14.30;70.73
73338;BME280;61575;49.908;35.556;2023-06-22T01:06:02;99620.91;;;14.29;70.51
73338;BME280;61575;49.908;35.556;2023-06-22T01:09:15;99626.06;;;14.24;70.39
73338;BME280;61575;49.908;35.556;2023-06-22T01:12:18;99624.56;;;14.22;70.94
73338;BME280;61575;49.908;35.556;2023-06-22T01:15:45;99624.31;;;14.17;71.32
73338;BME280;61575;49.908;35.556;2023-06-22T01:18:53;99619.09;;;14.15;70.93
73338;BME280;61575;49.908;35.556;2023-06-22T01:21:57;99614.91;;;14.12;71.35
73338;BME280;61575;49.908;35.556;2023-06-22T01:25:13;99620.31;;;14.12;71.48
73338;BME280;61575;49.908;35.556;2023-06-22T01:31:41;99620.59;;;14.03;71.52
73338;BME280;61575;49.908;35.556;2023-06-22T01:34:47;99629.75;;;14.02;71.10
73338;BME280;61575;49.908;35.556;2023-06-22T01:37:49;99634.31;;;14.01;71.05
73338;BME280;61575;49.908;35.556;2023-06-22T01:40:53;99629.94;;;14.00;71.45
73338;BME280;61575;49.908;35.556;2023-06-22T01:43:56;99635.53;;;13.99;72.04
73338;BME280;61575;49.908;35.556;2023-06-22T01:46:59;99636.34;;;13.99;71.72
73338;BME280;61575;49.908;35.556;2023-06-22T01:50:01;99643.63;;;13.99;70.98
73338;BME280;61575;49.908;35.556;2023-06-22T01:53:03;99642.13;;;13.96;70.43
73338;BME280;61575;49.908;35.556;2023-06-22T01:56:06;99647.53;;;13.96;70.40
73338;BME280;61575;49.908;35.556;2023-06-22T01:59:32;99646.31;;;13.99;70.95
73338;BME280;61575;49.908;35.556;2023-06-22T02:02:41;99645.09;;;14.01;70.55
73338;BME280;61575;49.908;35.556;2023-06-22T02:05:50;99655.53;;;14.04;70.08
73338;BME280;61575;49.908;35.556;2023-06-22T02:08:59;99648.06;;;14.06;70.63
73338;BME280;61575;49.908;35.556;2023-06-22T02:12:04;99646.03;;;14.08;70.39
73338;BME280;61575;49.908;35.556;2023-06-22T02:15:09;99645.44;;;14.13;70.42
73338;BME280;61575;49.908;35.556;2023-06-22T02:18:12;99646.94;;;14.16;70.74
73338;BME280;61575;49.908;35.556;2023-06-22T02:21:14;99646.56;;;14.19;71.15
73338;BME280;61575;49.908;35.556;2023-06-22T02:24:16;99651.19;;;14.25;70.44
73338;BME280;61575;49.908;35.556;2023-06-22T02:27:18;99648.56;;;14.31;71.05
73338;BME280;61575;49.908;35.556;2023-06-22T02:30:22;99657.59;;;14.38;71.50
73338;BME280;61575;49.908;35.556;2023-06-22T02:33:24;99663.34;;;14.50;71.03
73338;BME280;61575;49.908;35.556;2023-06-22T02:36:26;99662.56;;;14.56;71.31
73338;BME280;61575;49.908;35.556;2023-06-22T02:39:34;99666.44;;;14.68;72.20
73338;BME280;61575;49.908;35.556;2023-06-22T02:42:37;99670.88;;;14.76;71.04
73338;BME280;61575;49.908;35.556;2023-06-22T02:45:39;99668.28;;;14.89;68.07
73338;BME280;61575;49.908;35.556;2023-06-22T02:48:42;99675.69;;;15.02;66.16
73338;BME280;61575;49.908;35.556;2023-06-22T02:51:48;99666.22;;;15.13;64.47
73338;BME280;61575;49.908;35.556;2023-06-22T02:54:53;99667.97;;;15.27;63.61
73338;BME280;61575;49.908;35.556;2023-06-22T02:57:55;99666.84;;;15.42;62.73
73338;BME280;61575;49.908;35.556;2023-06-22T03:00:59;99673.41;;;15.55;61.66
73338;BME280;61575;49.908;35.556;2023-06-22T03:04:08;99679.13;;;15.66;60.73
73338;BME280;61575;49.908;35.556;2023-06-22T03:07:10;99677.72;;;15.77;60.14
73338;BME280;61575;49.908;35.556;2023-06-22T03:10:13;99689.66;;;15.89;59.88
73338;BME280;61575;49.908;35.556;2023-06-22T03:13:15;99687.19;;;15.94;59.22
73338;BME280;61575;49.908;35.556;2023-06-22T03:16:19;99691.81;;;16.00;58.74
73338;BME280;61575;49.908;35.556;2023-06-22T03:19:22;99692.03;;;16.05;58.12
73338;BME280;61575;49.908;35.556;2023-06-22T03:22:24;99687.72;;;16.18;57.82
73338;BME280;61575;49.908;35.556;2023-06-22T03:25:26;99697.53;;;16.25;57.47
73338;BME280;61575;49.908;35.556;2023-06-22T03:28:28;99700.91;;;16.34;56.73
73338;BME280;61575;49.908;35.556;2023-06-22T03:31:31;99703.88;;;16.46;56.45
73338;BME280;61575;49.908;35.556;2023-06-22T03:34:33;99695.81;;;16.59;56.32
73338;BME280;61575;49.908;35.556;2023-06-22T03:37:37;99699.59;;;16.71;55.71
73338;BME280;61575;49.908;35.556;2023-06-22T03:40:39;99705.88;;;16.78;55.42
73338;BME280;61575;49.908;35.556;2023-06-22T03:43:41;99710.50;;;16.91;55.07
73338;BME280;61575;49.908;35.556;2023-06-22T03:46:44;99715.75;;;17.12;55.29
73338;BME280;61575;49.908;35.556;2023-06-22T03:49:46;99712.19;;;17.45;55.60
73338;BME280;61575;49.908;35.556;2023-06-22T03:52:48;99711.34;;;17.77;54.60
73338;BME280;61575;49.908;35.556;2023-06-22T03:55:51;99715.44;;;18.13;53.42
73338;BME280;61575;49.908;35.556;2023-06-22T03:58:53;99719.72;;;18.40;52.87
73338;BME280;61575;49.908;35.556;2023-06-22T04:01:55;99726.38;;;18.57;51.74
73338;BME280;61575;49.908;35.556;2023-06-22T04:04:57;99719.13;;;18.83;51.75
73338;BME280;61575;49.908;35.556;2023-06-22T04:08:02;99722.94;;;19.07;51.27
73338;BME280;61575;49.908;35.556;2023-06-22T04:11:04;99725.75;;;19.25;50.85
73338;BME280;61575;49.908;35.556;2023-06-22T04:14:06;99726.91;;;19.42;50.43
73338;BME280;61575;49.908;35.556;2023-06-22T04:17:08;99725.44;;;19.65;50.00
73338;BME280;61575;49.908;35.556;2023-06-22T04:20:10;99726.59;;;19.93;50.27
73338;BME280;61575;49.908;35.556;2023-06-22T04:23:13;99725.13;;;20.16;48.73
73338;BME280;61575;49.908;35.556;2023-06-22T04:26:14;99727.75;;;20.41;48.73
73338;BME280;61575;49.908;35.556;2023-06-22T04:29:16;99730.69;;;20.57;47.11
73338;BME280;61575;49.908;35.556;2023-06-22T04:32:18;99730.97;;;20.68;46.73
73338;BME280;61575;49.908;35.556;2023-06-22T04:35:20;99737.31;;;20.80;46.88
73338;BME280;61575;49.908;35.556;2023-06-22T04:38:24;99735.19;;;21.00;47.11
73338;BME280;61575;49.908;35.556;2023-06-22T04:41:26;99737.56;;;21.08;46.05
73338;BME280;61575;49.908;35.556;2023-06-22T04:44:28;99728.47;;;21.26;46.37
73338;BME280;61575;49.908;35.556;2023-06-22T04:47:30;99731.22;;;21.38;45.91
73338;BME280;61575;49.908;35.556;2023-06-22T04:50:32;99731.50;;;21.60;46.05
73338;BME280;61575;49.908;35.556;2023-06-22T04:53:34;99725.91;;;21.66;45.43
73338;BME280;61575;49.908;35.556;2023-06-22T04:56:36;99728.09;;;21.76;44.89
73338;BME280;61575;49.908;35.556;2023-06-22T04:59:38;99726.53;;;21.92;44.74
73338;BME280;61575;49.908;35.556;2023-06-22T05:02:44;99718.78;;;22.12;44.94
73338;BME280;61575;49.908;35.556;2023-06-22T05:05:47;99723.88;;;22.32;44.46
73338;BME280;61575;49.908;35.556;2023-06-22T05:08:49;99730.22;;;22.61;44.78
73338;BME280;61575;49.908;35.556;2023-06-22T05:11:51;99729.22;;;22.78;44.93
73338;BME280;61575;49.908;35.556;2023-06-22T05:14:53;99726.53;;;22.95;44.85
73338;BME280;61575;49.908;35.556;2023-06-22T05:17:55;99733.94;;;23.11;44.84
73338;BME280;61575;49.908;35.556;2023-06-22T05:20:58;99733.75;;;23.30;44.20
73338;BME280;61575;49.908;35.556;2023-06-22T05:24:01;99729.75;;;23.37;44.01
73338;BME280;61575;49.908;35.556;2023-06-22T05:27:04;99722.63;;;23.53;44.41
73338;BME280;61575;49.908;35.556;2023-06-22T05:30:06;99720.94;;;23.69;43.48
73338;BME280;61575;49.908;35.556;2023-06-22T05:33:09;99720.19;;;23.73;43.86
73338;BME280;61575;49.908;35.556;2023-06-22T05:36:11;99707.81;;;23.88;43.06
73338;BME280;61575;49.908;35.556;2023-06-22T05:39:14;99723.50;;;24.09;43.47
73338;BME280;61575;49.908;35.556;2023-06-22T05:42:16;99727.34;;;24.30;43.17
73338;BME280;61575;49.908;35.556;2023-06-22T05:45:18;99726.44;;;24.46;42.44
73338;BME280;61575;49.908;35.556;2023-06-22T05:48:20;99733.03;;;24.67;41.65
73338;BME280;61575;49.908;35.556;2023-06-22T05:51:22;99742.50;;;24.76;41.93
73338;BME280;61575;49.908;35.556;2023-06-22T05:54:24;99735.22;;;24.92;41.08
73338;BME280;61575;49.908;35.556;2023-06-22T05:57:26;99736.88;;;25.20;40.83
73338;BME280;61575;49.908;35.556;2023-06-22T06:00:28;99739.47;;;25.31;39.91
73338;BME280;61575;49.908;35.556;2023-06-22T06:03:33;99732.72;;;25.44;39.29
73338;BME280;61575;49.908;35.556;2023-06-22T06:06:35;99740.38;;;25.74;38.56
73338;BME280;61575;49.908;35.556;2023-06-22T06:09:39;99738.03;;;25.88;37.58
73338;BME280;61575;49.908;35.556;2023-06-22T06:12:40;99743.53;;;25.88;36.73
73338;BME280;61575;49.908;35.556;2023-06-22T06:15:42;99735.69;;;26.12;36.34
73338;BME280;61575;49.908;35.556;2023-06-22T06:18:44;99732.97;;;26.17;35.66
73338;BME280;61575;49.908;35.556;2023-06-22T06:21:46;99736.66;;;26.38;34.77
73338;BME280;61575;49.908;35.556;2023-06-22T06:24:48;99742.19;;;26.43;33.72
73338;BME280;61575;49.908;35.556;2023-06-22T06:27:52;99738.19;;;26.66;32.28
73338;BME280;61575;49.908;35.556;2023-06-22T06:30:56;99736.03;;;26.78;31.61
73338;BME280;61575;49.908;35.556;2023-06-22T06:33:58;99740.78;;;27.08;32.31
73338;BME280;61575;49.908;35.556;2023-06-22T06:37:00;99745.25;;;27.29;31.67
73338;BME280;61575;49.908;35.556;2023-06-22T06:40:03;99745.81;;;27.36;30.57
73338;BME280;61575;49.908;35.556;2023-06-22T06:43:06;99739.75;;;27.44;30.51
73338;BME280;61575;49.908;35.556;2023-06-22T06:46:09;99735.88;;;27.60;30.85
73338;BME280;61575;49.908;35.556;2023-06-22T06:49:10;99739.47;;;27.81;31.02
73338;BME280;61575;49.908;35.556;2023-06-22T06:52:13;99737.56;;;27.82;29.39
73338;BME280;61575;49.908;35.556;2023-06-22T06:55:15;99743.34;;;27.85;28.42
73338;BME280;61575;49.908;35.556;2023-06-22T06:58:17;99738.06;;;28.04;30.04
73338;BME280;61575;49.908;35.556;2023-06-22T07:01:18;99741.41;;;27.91;30.07
73338;BME280;61575;49.908;35.556;2023-06-22T07:04:23;99749.13;;;27.89;30.05
73338;BME280;61575;49.908;35.556;2023-06-22T07:07:25;99744.16;;;28.01;30.00
73338;BME280;61575;49.908;35.556;2023-06-22T07:10:27;99743.03;;;27.97;30.30
73338;BME280;61575;49.908;35.556;2023-06-22T07:13:30;99741.34;;;28.21;30.57
73338;BME280;61575;49.908;35.556;2023-06-22T07:16:32;99743.22;;;28.46;30.82
73338;BME280;61575;49.908;35.556;2023-06-22T07:19:34;99748.34;;;28.73;29.31
73338;BME280;61575;49.908;35.556;2023-06-22T07:22:36;99751.69;;;28.65;28.71
73338;BME280;61575;49.908;35.556;2023-06-22T07:25:38;99746.41;;;28.74;27.75
73338;BME280;61575;49.908;35.556;2023-06-22T07:28:40;99744.16;;;28.81;27.04
73338;BME280;61575;49.908;35.556;2023-06-22T07:31:42;99754.28;;;29.06;28.18
73338;BME280;61575;49.908;35.556;2023-06-22T07:34:44;99755.94;;;29.07;28.10
73338;BME280;61575;49.908;35.556;2023-06-22T07:37:46;99745.22;;;28.95;28.46
73338;BME280;61575;49.908;35.556;2023-06-22T07:40:49;99752.13;;;29.37;28.00
73338;BME280;61575;49.908;35.556;2023-06-22T07:43:52;99758.75;;;29.41;26.74
73338;BME280;61575;49.908;35.556;2023-06-22T07:46:54;99762.84;;;29.48;27.36
73338;BME280;61575;49.908;35.556;2023-06-22T07:49:58;99754.28;;;29.50;27.49
73338;BME280;61575;49.908;35.556;2023-06-22T07:53:00;99757.03;;;29.50;27.32
73338;BME280;61575;49.908;35.556;2023-06-22T07:56:01;99755.41;;;29.78;27.27
73338;BME280;61575;49.908;35.556;2023-06-22T07:59:08;99764.06;;;30.00;27.59
73338;BME280;61575;49.908;35.556;2023-06-22T08:02:10;99759.44;;;30.20;27.50
73338;BME280;61575;49.908;35.556;2023-06-22T08:05:14;99762.31;;;30.33;27.29
73338;BME280;61575;49.908;35.556;2023-06-22T08:08:23;99754.66;;;30.49;26.66
73338;BME280;61575;49.908;35.556;2023-06-22T08:11:25;99763.91;;;30.39;26.77
73338;BME280;61575;49.908;35.556;2023-06-22T08:14:29;99764.00;;;30.10;25.54
73338;BME280;61575;49.908;35.556;2023-06-22T08:17:31;99758.50;;;30.05;26.42
73338;BME280;61575;49.908;35.556;2023-06-22T08:20:33;99755.16;;;30.08;26.56
73338;BME280;61575;49.908;35.556;2023-06-22T08:23:35;99752.75;;;30.21;25.52
73338;BME280;61575;49.908;35.556;2023-06-22T08:26:37;99754.19;;;30.42;26.83
73338;BME280;61575;49.908;35.556;2023-06-22T08:29:39;99759.22;;;30.64;27.21
73338;BME280;61575;49.908;35.556;2023-06-22T08:32:41;99755.78;;;30.72;27.08
73338;BME280;61575;49.908;35.556;2023-06-22T08:35:43;99751.53;;;30.79;26.38
73338;BME280;61575;49.908;35.556;2023-06-22T08:38:45;99752.66;;;30.97;27.96
73338;BME280;61575;49.908;35.556;2023-06-22T08:41:52;99754.06;;;30.76;26.89
73338;BME280;61575;49.908;35.556;2023-06-22T08:44:55;99748.16;;;31.01;28.02
73338;BME280;61575;49.908;35.556;2023-06-22T08:47:57;99749.91;;;31.16;26.13
73338;BME280;61575;49.908;35.556;2023-06-22T08:50:59;99751.34;;;31.32;27.23
73338;BME280;61575;49.908;35.556;2023-06-22T08:54:01;99747.06;;;31.21;26.59
73338;BME280;61575;49.908;35.556;2023-06-22T08:57:03;99735.56;;;31.09;26.10
73338;BME280;61575;49.908;35.556;2023-06-22T09:00:09;99740.69;;;31.21;26.58
73338;BME280;61575;49.908;35.556;2023-06-22T09:03:18;99733.16;;;31.40;27.28
73338;BME280;61575;49.908;35.556;2023-06-22T09:06:22;99736.78;;;31.40;25.57
73338;BME280;61575;49.908;35.556;2023-06-22T09:09:24;99737.13;;;31.53;26.36
73338;BME280;61575;49.908;35.556;2023-06-22T09:12:26;99731.16;;;31.27;26.24
73338;BME280;61575;49.908;35.556;2023-06-22T09:15:28;99725.59;;;31.46;26.64
73338;BME280;61575;49.908;35.556;2023-06-22T09:18:31;99727.47;;;31.83;26.31
73338;BME280;61575;49.908;35.556;2023-06-22T09:21:33;99726.81;;;31.72;26.68
73338;BME280;61575;49.908;35.556;2023-06-22T09:24:35;99728.00;;;31.98;27.37
73338;BME280;61575;49.908;35.556;2023-06-22T09:27:37;99716.25;;;31.74;25.94
73338;BME280;61575;49.908;35.556;2023-06-22T09:30:39;99721.94;;;31.96;25.95
73338;BME280;61575;49.908;35.556;2023-06-22T09:33:41;99723.59;;;31.97;26.73
73338;BME280;61575;49.908;35.556;2023-06-22T09:36:43;99723.78;;;32.01;26.56
73338;BME280;61575;49.908;35.556;2023-06-22T09:39:46;99717.19;;;31.97;26.67
73338;BME280;61575;49.908;35.556;2023-06-22T09:42:48;99703.53;;;32.00;26.25
73338;BME280;61575;49.908;35.556;2023-06-22T09:45:49;99705.66;;;31.90;26.26
73338;BME280;61575;49.908;35.556;2023-06-22T09:48:52;99708.53;;;31.85;26.88
73338;BME280;61575;49.908;35.556;2023-06-22T09:51:54;99705.81;;;32.26;27.26
73338;BME280;61575;49.908;35.556;2023-06-22T09:54:56;99699.53;;;32.34;26.90
73338;BME280;61575;49.908;35.556;2023-06-22T09:57:58;99693.88;;;32.39;26.79
73338;BME280;61575;49.908;35.556;2023-06-22T10:01:00;99693.88;;;32.39;27.23
73338;BME280;61575;49.908;35.556;2023-06-22T10:04:02;99690.88;;;32.63;27.40
73338;BME280;61575;49.908;35.556;2023-06-22T10:07:05;99695.72;;;32.71;27.11
73338;BME280;61575;49.908;35.556;2023-06-22T10:10:07;99686.66;;;32.11;25.94
73338;BME280;61575;49.908;35.556;2023-06-22T10:13:10;99684.69;;;31.97;25.82
73338;BME280;61575;49.908;35.556;2023-06-22T10:16:12;99678.94;;;32.35;26.18
73338;BME280;61575;49.908;35.556;2023-06-22T10:19:14;99680.19;;;32.29;26.23
73338;BME280;61575;49.908;35.556;2023-06-22T10:22:16;99680.91;;;32.48;26.56
73338;BME280;61575;49.908;35.556;2023-06-22T10:25:18;99679.56;;;32.46;26.31
73338;BME280;61575;49.908;35.556;2023-06-22T10:28:20;99680.28;;;32.51;26.30
73338;BME280;61575;49.908;35.556;2023-06-22T10:31:22;99669.34;;;32.55;26.00
73338;BME280;61575;49.908;35.556;2023-06-22T10:34:24;99673.25;;;32.54;25.75
73338;BME280;61575;49.908;35.556;2023-06-22T10:37:26;99666.78;;;32.58;25.80
73338;BME280;61575;49.908;35.556;2023-06-22T10:40:28;99663.59;;;32.51;25.51
73338;BME280;61575;49.908;35.556;2023-06-22T10:43:30;99674.09;;;32.54;25.60
73338;BME280;61575;49.908;35.556;2023-06-22T10:46:32;99672.34;;;32.72;26.26
73338;BME280;61575;49.908;35.556;2023-06-22T10:49:34;99671.41;;;32.99;26.98
73338;BME280;61575;49.908;35.556;2023-06-22T10:52:36;99670.03;;;32.88;24.73
73338;BME280;61575;49.908;35.556;2023-06-22T10:55:38;99681.78;;;32.85;25.52
73338;BME280;61575;49.908;35.556;2023-06-22T10:58:56;99669.75;;;32.76;25.51
73338;BME280;61575;49.908;35.556;2023-06-22T11:01:58;99674.44;;;32.89;25.96
73338;BME280;61575;49.908;35.556;2023-06-22T11:05:00;99668.19;;;32.83;25.80
73338;BME280;61575;49.908;35.556;2023-06-22T11:08:02;99669.78;;;31.93;26.12
73338;BME280;61575;49.908;35.556;2023-06-22T11:11:04;99657.00;;;32.06;25.47
73338;BME280;61575;49.908;35.556;2023-06-22T11:14:06;99659.38;;;32.40;25.97
73338;BME280;61575;49.908;35.556;2023-06-22T11:17:08;99656.28;;;32.55;27.57
73338;BME280;61575;49.908;35.556;2023-06-22T11:20:11;99658.09;;;32.74;26.68
73338;BME280;61575;49.908;35.556;2023-06-22T11:23:13;99667.56;;;32.86;27.01
73338;BME280;61575;49.908;35.556;2023-06-22T11:26:15;99655.09;;;32.84;26.31
73338;BME280;61575;49.908;35.556;2023-06-22T11:29:17;99655.22;;;32.79;26.40
73338;BME280;61575;49.908;35.556;2023-06-22T11:32:36;99645.13;;;33.05;26.82
73338;BME280;61575;49.908;35.556;2023-06-22T11:35:39;99640.84;;;33.21;26.09
73338;BME280;61575;49.908;35.556;2023-06-22T11:38:42;99642.97;;;33.02;25.56
73338;BME280;61575;49.908;35.556;2023-06-22T11:41:44;99639.94;;;33.12;26.14
73338;BME280;61575;49.908;35.556;2023-06-22T11:44:46;99640.06;;;33.07;26.10
73338;BME280;61575;49.908;35.556;2023-06-22T11:47:48;99632.03;;;33.06;27.02
73338;BME280;61575;49.908;35.556;2023-06-22T11:50:50;99641.69;;;33.08;26.87
73338;BME280;61575;49.908;35.556;2023-06-22T11:53:53;99641.66;;;33.22;26.97
73338;BME280;61575;49.908;35.556;2023-06-22T11:56:55;99646.22;;;32.32;24.75
73338;BME280;61575;49.908;35.556;2023-06-22T11:59:57;99642.25;;;32.74;26.68
73338;BME280;61575;49.908;35.556;2023-06-22T12:02:59;99645.25;;;33.00;26.96
73338;BME280;61575;49.908;35.556;2023-06-22T12:06:02;99638.09;;;33.08;26.45
73338;BME280;61575;49.908;35.556;2023-06-22T12:09:04;99634.88;;;33.14;25.93
73338;BME280;61575;49.908;35.556;2023-06-22T12:12:07;99628.66;;;32.95;25.56
73338;BME280;61575;49.908;35.556;2023-06-22T12:15:09;99621.72;;;32.84;25.88
73338;BME280;61575;49.908;35.556;2023-06-22T12:18:12;99615.00;;;32.85;25.83
73338;BME280;61575;49.908;35.556;2023-06-22T12:21:16;99621.78;;;32.92;26.26
73338;BME280;61575;49.908;35.556;2023-06-22T12:24:18;99625.44;;;33.01;26.87
73338;BME280;61575;49.908;35.556;2023-06-22T12:27:19;99619.94;;;33.10;27.48
73338;BME280;61575;49.908;35.556;2023-06-22T12:30:22;99621.66;;;32.97;26.84
73338;BME280;61575;49.908;35.556;2023-06-22T12:33:23;99612.28;;;32.71;25.71
73338;BME280;61575;49.908;35.556;2023-06-22T12:36:25;99617.78;;;32.85;26.52
73338;BME280;61575;49.908;35.556;2023-06-22T12:39:27;99615.97;;;33.03;26.75
73338;BME280;61575;49.908;35.556;2023-06-22T12:42:29;99612.41;;;33.11;26.74
73338;BME280;61575;49.908;35.556;2023-06-22T12:45:31;99609.13;;;33.09;25.53
73338;BME280;61575;49.908;35.556;2023-06-22T12:48:35;99608.69;;;32.93;24.75
73338;BME280;61575;49.908;35.556;2023-06-22T12:51:43;99608.31;;;32.86;25.30
73338;BME280;61575;49.908;35.556;2023-06-22T12:54:45;99606.09;;;32.96;26.22
73338;BME280;61575;49.908;35.556;2023-06-22T12:57:56;99611.84;;;33.00;27.01
73338;BME280;61575;49.908;35.556;2023-06-22T13:00:58;99609.69;;;32.97;27.32
73338;BME280;61575;49.908;35.556;2023-06-22T13:04:00;99611.22;;;33.03;27.69
73338;BME280;61575;49.908;35.556;2023-06-22T13:07:02;99601.28;;;33.11;27.99
73338;BME280;61575;49.908;35.556;2023-06-22T13:10:19;99597.31;;;33.03;27.88
73338;BME280;61575;49.908;35.556;2023-06-22T13:13:21;99596.34;;;33.08;28.42
73338;BME280;61575;49.908;35.556;2023-06-22T13:16:26;99598.88;;;32.95;27.73
73338;BME280;61575;49.908;35.556;2023-06-22T13:19:28;99595.78;;;32.97;28.22
73338;BME280;61575;49.908;35.556;2023-06-22T13:22:35;99589.97;;;33.07;27.65
73338;BME280;61575;49.908;35.556;2023-06-22T13:25:44;99588.13;;;33.03;27.80
73338;BME280;61575;49.908;35.556;2023-06-22T13:28:46;99585.81;;;32.96;28.10
73338;BME280;61575;49.908;35.556;2023-06-22T13:31:48;99588.41;;;32.92;28.59
73338;BME280;61575;49.908;35.556;2023-06-22T13:34:52;99579.34;;;32.87;27.98
73338;BME280;61575;49.908;35.556;2023-06-22T13:37:54;99586.06;;;32.50;28.06
73338;BME280;61575;49.908;35.556;2023-06-22T13:40:56;99577.72;;;32.50;29.36
73338;BME280;61575;49.908;35.556;2023-06-22T13:44:00;99585.75;;;32.51;29.45
73338;BME280;61575;49.908;35.556;2023-06-22T13:47:02;99579.00;;;32.66;29.11
73338;BME280;61575;49.908;35.556;2023-06-22T13:50:05;99581.88;;;32.75;28.10
73338;BME280;61575;49.908;35.556;2023-06-22T13:53:07;99585.63;;;32.56;27.97
73338;BME280;61575;49.908;35.556;2023-06-22T13:56:09;99569.81;;;32.43;26.69
73338;BME280;61575;49.908;35.556;2023-06-22T13:59:11;99565.06;;;32.44;28.04
73338;BME280;61575;49.908;35.556;2023-06-22T14:02:13;99567.66;;;32.40;28.57
73338;BME280;61575;49.908;35.556;2023-06-22T14:05:15;99559.78;;;32.56;29.15
73338;BME280;61575;49.908;35.556;2023-06-22T14:08:17;99565.66;;;32.54;28.13
73338;BME280;61575;49.908;35.556;2023-06-22T14:11:39;99560.47;;;32.61;28.20
73338;BME280;61575;49.908;35.556;2023-06-22T14:14:41;99558.31;;;32.22;27.43
73338;BME280;61575;49.908;35.556;2023-06-22T14:17:43;99562.31;;;32.30;28.62
73338;BME280;61575;49.908;35.556;2023-06-22T14:20:44;99553.03;;;32.34;28.44
73338;BME280;61575;49.908;35.556;2023-06-22T14:23:46;99550.03;;;32.45;28.17
73338;BME280;61575;49.908;35.556;2023-06-22T14:26:51;99548.13;;;32.31;28.35
73338;BME280;61575;49.908;35.556;2023-06-22T14:29:53;99543.25;;;32.37;28.31
73338;BME280;61575;49.908;35.556;2023-06-22T14:32:55;99535.13;;;32.41;27.61
73338;BME280;61575;49.908;35.556;2023-06-22T14:35:57;99547.69;;;32.38;27.64
73338;BME280;61575;49.908;35.556;2023-06-22T14:38:58;99544.41;;;32.36;28.35
73338;BME280;61575;49.908;35.556;2023-06-22T14:42:01;99539.03;;;32.40;28.48
73338;BME280;61575;49.908;35.556;2023-06-22T14:45:05;99538.28;;;32.48;28.19
73338;BME280;61575;49.908;35.556;2023-06-22T14:48:07;99535.38;;;32.53;28.60
73338;BME280;61575;49.908;35.556;2023-06-22T14:51:10;99537.22;;;32.57;28.01
73338;BME280;61575;49.908;35.556;2023-06-22T14:54:17;99536.84;;;32.50;28.36
73338;BME280;61575;49.908;35.556;2023-06-22T14:57:19;99543.38;;;32.32;28.40
73338;BME280;61575;49.908;35.556;2023-06-22T15:00:21;99535.03;;;32.32;28.15
73338;BME280;61575;49.908;35.556;2023-06-22T15:03:23;99533.00;;;32.24;27.58
73338;BME280;61575;49.908;35.556;2023-06-22T15:06:29;99543.84;;;32.48;27.79
73338;BME280;61575;49.908;35.556;2023-06-22T15:09:31;99539.63;;;32.50;28.24
73338;BME280;61575;49.908;35.556;2023-06-22T15:12:33;99536.13;;;32.45;27.38
73338;BME280;61575;49.908;35.556;2023-06-22T15:15:35;99542.78;;;32.21;28.13
73338;BME280;61575;49.908;35.556;2023-06-22T15:18:37;99541.84;;;32.26;28.65
73338;BME280;61575;49.908;35.556;2023-06-22T15:21:40;99535.66;;;32.29;28.71
73338;BME280;61575;49.908;35.556;2023-06-22T15:24:41;99531.16;;;32.19;28.97
73338;BME280;61575;49.908;35.556;2023-06-22T15:27:43;99529.91;;;32.12;28.24
73338;BME280;61575;49.908;35.556;2023-06-22T15:30:45;99533.75;;;32.02;28.50
73338;BME280;61575;49.908;35.556;2023-06-22T15:33:49;99526.38;;;31.84;28.37
73338;BME280;61575;49.908;35.556;2023-06-22T15:36:51;99529.03;;;31.75;28.53
73338;BME280;61575;49.908;35.556;2023-06-22T15:39:54;99523.69;;;31.51;28.68
73338;BME280;61575;49.908;35.556;2023-06-22T15:42:57;99532.81;;;31.24;29.46
73338;BME280;61575;49.908;35.556;2023-06-22T15:45:59;99523.66;;;30.91;29.45
73338;BME280;61575;49.908;35.556;2023-06-22T15:49:01;99522.66;;;30.68;29.83
73338;BME280;61575;49.908;35.556;2023-06-22T15:52:03;99530.91;;;30.36;30.07
73338;BME280;61575;49.908;35.556;2023-06-22T15:55:05;99536.22;;;30.13;30.70
73338;BME280;61575;49.908;35.556;2023-06-22T15:58:09;99533.44;;;29.95;30.99
73338;BME280;61575;49.908;35.556;2023-06-22T16:01:14;99530.41;;;29.72;31.69